createdAt,value
2023-02-16T00:01:20.608Z,100.00
2023-02-16T00:03:47.171Z,100.00
2023-02-16T00:06:13.780Z,100.00
2023-02-16T00:08:40.680Z,100.00
2023-02-16T00:11:18.914Z,100.00
2023-02-16T00:13:45.368Z,100.00
2023-02-16T00:16:19.554Z,100.00
2023-02-16T00:18:46.765Z,100.00
2023-02-16T00:21:13.549Z,100.00
2023-02-16T00:23:40.354Z,100.00
2023-02-16T00:26:22.463Z,100.00
2023-02-16T00:28:52.701Z,100.00
2023-02-16T00:31:22.075Z,100.00
2023-02-16T00:33:49.476Z,100.00
2023-02-16T00:36:16.035Z,100.00
2023-02-16T00:38:42.824Z,100.00
2023-02-16T00:41:17.236Z,100.00
2023-02-16T00:43:43.652Z,100.00
2023-02-16T00:46:10.385Z,100.00
2023-02-16T00:48:36.954Z,100.00
2023-02-16T00:51:11.130Z,100.00
2023-02-16T00:53:46.941Z,100.00
2023-02-16T00:56:20.161Z,100.00
2023-02-16T00:58:49.027Z,100.00
2023-02-16T01:01:18.103Z,100.00
2023-02-16T01:03:44.910Z,100.00
2023-02-16T01:06:12.063Z,100.00
2023-02-16T01:08:38.501Z,100.00
2023-02-16T01:11:07.637Z,100.00
2023-02-16T01:13:46.160Z,100.00
2023-02-16T01:16:27.856Z,100.00
2023-02-16T01:18:54.659Z,100.00
2023-02-16T01:21:22.124Z,100.00
2023-02-16T01:23:48.664Z,100.00
2023-02-16T01:26:19.772Z,100.00
2023-02-16T01:28:47.384Z,100.00
2023-02-16T01:31:14.990Z,100.00
2023-02-16T01:33:42.864Z,100.00
2023-02-16T01:36:43.367Z,100.00
2023-02-16T01:39:16.006Z,100.00
2023-02-16T01:41:49.333Z,100.00
2023-02-16T01:44:21.048Z,100.00
2023-02-16T01:47:04.451Z,100.00
2023-02-16T01:49:31.311Z,100.00
2023-02-16T01:52:37.973Z,100.00
2023-02-16T01:55:07.224Z,100.00
2023-02-16T01:57:59.610Z,100.00
2023-02-16T02:00:51.189Z,100.00
2023-02-16T02:03:21.244Z,100.00
2023-02-16T02:05:50.277Z,100.00
2023-02-16T02:08:25.837Z,100.00
2023-02-16T02:11:14.388Z,100.00
2023-02-16T02:13:47.497Z,100.00
2023-02-16T02:16:19.718Z,100.00
2023-02-16T02:18:46.784Z,100.00
2023-02-16T02:21:41.726Z,100.00
2023-02-16T02:24:23.480Z,100.00
2023-02-16T02:27:07.040Z,100.00
2023-02-16T02:30:01.802Z,100.00
2023-02-16T02:32:28.346Z,100.00
2023-02-16T02:35:25.443Z,100.00
2023-02-16T02:38:32.330Z,100.00
2023-02-16T02:41:32.966Z,100.00
2023-02-16T02:44:06.773Z,100.00
2023-02-16T02:46:35.735Z,100.00
2023-02-16T02:49:02.411Z,100.00
2023-02-16T02:51:29.097Z,100.00
2023-02-16T02:54:29.980Z,100.00
2023-02-16T02:57:02.777Z,100.00
2023-02-16T02:59:31.711Z,100.00
2023-02-16T03:02:01.386Z,100.00
2023-02-16T03:04:32.316Z,100.00
2023-02-16T03:07:01.574Z,100.00
2023-02-16T03:09:28.628Z,100.00
2023-02-16T03:11:57.491Z,100.00
2023-02-16T03:14:37.884Z,100.00
2023-02-16T03:17:10.742Z,100.00
2023-02-16T03:19:40.244Z,100.00
2023-02-16T03:22:06.719Z,100.00
2023-02-16T03:24:33.952Z,100.00
2023-02-16T03:27:02.197Z,100.00
2023-02-16T03:29:29.398Z,100.00
2023-02-16T03:31:57.322Z,100.00
2023-02-16T03:34:25.645Z,100.00
2023-02-16T03:36:56.520Z,100.00
2023-02-16T03:39:23.472Z,100.00
2023-02-16T03:41:52.223Z,100.00
2023-02-16T03:44:19.429Z,100.00
2023-02-16T03:46:46.517Z,100.00
2023-02-16T03:49:12.961Z,100.00
2023-02-16T03:51:39.401Z,100.00
2023-02-16T03:54:05.925Z,100.00
2023-02-16T03:56:32.584Z,100.00
2023-02-16T03:58:59.132Z,100.00
2023-02-16T04:01:26.756Z,100.00
2023-02-16T04:03:53.380Z,100.00
2023-02-16T04:06:20.089Z,100.00
2023-02-16T04:08:46.727Z,100.00
2023-02-16T04:11:13.772Z,100.00
2023-02-16T04:13:40.405Z,100.00
2023-02-16T04:16:07.497Z,100.00
2023-02-16T04:18:33.955Z,100.00
2023-02-16T04:21:00.671Z,100.00
2023-02-16T04:23:27.178Z,100.00
2023-02-16T04:25:53.834Z,100.00
2023-02-16T04:28:20.298Z,100.00
2023-02-16T04:30:46.912Z,100.00
2023-02-16T04:33:13.703Z,100.00
2023-02-16T04:35:40.516Z,100.00
2023-02-16T04:38:07.168Z,100.00
2023-02-16T04:40:33.712Z,100.00
2023-02-16T04:43:00.228Z,100.00
2023-02-16T04:45:26.799Z,100.00
2023-02-16T04:47:53.354Z,100.00
2023-02-16T04:50:20.173Z,100.00
2023-02-16T04:52:46.850Z,100.00
2023-02-16T04:55:13.324Z,100.00
2023-02-16T04:57:40.058Z,100.00
2023-02-16T05:00:09.712Z,100.00
2023-02-16T05:02:36.235Z,100.00
2023-02-16T05:05:02.886Z,100.00
2023-02-16T05:07:29.425Z,100.00
2023-02-16T05:09:56.590Z,100.00
2023-02-16T05:12:23.075Z,100.00
2023-02-16T05:14:49.888Z,100.00
2023-02-16T05:17:23.160Z,100.00
2023-02-16T05:19:53.216Z,100.00
2023-02-16T05:22:21.953Z,100.00
2023-02-16T05:24:49.549Z,100.00
2023-02-16T05:27:19.817Z,100.00
2023-02-16T05:29:46.454Z,100.00
2023-02-16T05:32:13.099Z,100.00
2023-02-16T05:34:40.004Z,100.00
2023-02-16T05:37:06.642Z,100.00
2023-02-16T05:39:33.805Z,100.00
2023-02-16T05:42:00.351Z,100.00
2023-02-16T05:44:27.090Z,100.00
2023-02-16T05:46:53.635Z,100.00
2023-02-16T05:49:20.247Z,100.00
2023-02-16T05:51:46.815Z,100.00
2023-02-16T05:54:14.376Z,100.00
2023-02-16T05:56:40.940Z,100.00
2023-02-16T05:59:07.407Z,100.00
2023-02-16T06:01:33.909Z,100.00
2023-02-16T06:04:00.473Z,100.00
2023-02-16T06:06:27.077Z,100.00
2023-02-16T06:08:53.569Z,100.00
2023-02-16T06:11:20.344Z,100.00
2023-02-16T06:13:46.798Z,100.00
2023-02-16T06:16:13.250Z,100.00
2023-02-16T06:18:39.764Z,100.00
2023-02-16T06:21:06.463Z,100.00
2023-02-16T06:23:32.991Z,100.00
2023-02-16T06:25:59.706Z,100.00
2023-02-16T06:28:26.570Z,100.00
2023-02-16T06:30:53.220Z,100.00
2023-02-16T06:33:19.836Z,100.00
2023-02-16T06:35:46.412Z,100.00
2023-02-16T06:38:13.021Z,100.00
2023-02-16T06:40:39.586Z,100.00
2023-02-16T06:43:06.192Z,100.00
2023-02-16T06:45:32.608Z,100.00
2023-02-16T06:47:59.175Z,100.00
2023-02-16T06:50:25.723Z,100.00
2023-02-16T06:52:52.424Z,100.00
2023-02-16T06:55:18.903Z,100.00
2023-02-16T06:57:45.361Z,100.00
2023-02-16T07:00:12.610Z,100.00
2023-02-16T07:02:39.091Z,100.00
2023-02-16T07:05:05.728Z,100.00
2023-02-16T07:07:32.177Z,100.00
2023-02-16T07:10:00.296Z,100.00
2023-02-16T07:12:27.047Z,100.00
2023-02-16T07:14:53.587Z,100.00
2023-02-16T07:17:20.529Z,100.00
2023-02-16T07:19:47.072Z,100.00
2023-02-16T07:22:13.616Z,100.00
2023-02-16T07:24:40.055Z,100.00
2023-02-16T07:27:06.804Z,100.00
2023-02-16T07:29:33.480Z,100.00
2023-02-16T07:32:00.040Z,100.00
2023-02-16T07:34:26.653Z,100.00
2023-02-16T07:36:53.242Z,100.00
2023-02-16T07:39:19.711Z,100.00
2023-02-16T07:41:46.249Z,100.00
2023-02-16T07:44:12.889Z,100.00
2023-02-16T07:46:39.531Z,100.00
2023-02-16T07:49:06.174Z,100.00
2023-02-16T07:51:32.657Z,100.00
2023-02-16T07:54:00.833Z,100.00
2023-02-16T07:56:29.994Z,100.00
2023-02-16T07:58:58.750Z,100.00
2023-02-16T08:01:25.375Z,100.00
2023-02-16T08:03:52.360Z,100.00
2023-02-16T08:06:19.845Z,100.00
2023-02-16T08:08:46.421Z,100.00
2023-02-16T08:11:16.221Z,100.00
2023-02-16T08:13:44.736Z,100.00
2023-02-16T08:16:16.410Z,100.00
2023-02-16T08:18:42.981Z,100.00
2023-02-16T08:21:15.793Z,100.00
2023-02-16T08:23:54.740Z,100.00
2023-02-16T08:26:23.459Z,100.00
2023-02-16T08:28:50.343Z,100.00
2023-02-16T08:31:19.752Z,100.00
2023-02-16T08:33:47.359Z,100.00
2023-02-16T08:36:34.674Z,100.00
2023-02-16T08:39:03.765Z,100.00
2023-02-16T08:41:33.734Z,100.00
2023-02-16T08:44:01.400Z,100.00
2023-02-16T08:46:29.748Z,100.00
2023-02-16T08:48:57.044Z,100.00
2023-02-16T08:51:24.137Z,100.00
2023-02-16T08:53:53.828Z,100.00
2023-02-16T08:56:20.258Z,100.00
2023-02-16T08:58:47.430Z,100.00
2023-02-16T09:01:15.137Z,100.00
2023-02-16T09:03:43.168Z,100.00
2023-02-16T09:06:11.638Z,100.00
2023-02-16T09:08:38.978Z,100.00
2023-02-16T09:11:13.402Z,100.00
2023-02-16T09:13:40.761Z,100.00
2023-02-16T09:16:21.620Z,100.00
2023-02-16T09:18:49.119Z,100.00
2023-02-16T09:21:19.070Z,100.00
2023-02-16T09:23:47.678Z,100.00
2023-02-16T09:26:24.714Z,100.00
2023-02-16T09:28:53.514Z,100.00
2023-02-16T09:31:28.158Z,100.00
2023-02-16T09:33:58.207Z,100.00
2023-02-16T09:36:25.247Z,100.00
2023-02-16T09:38:52.552Z,100.00
2023-02-16T09:41:21.945Z,100.00
2023-02-16T09:44:12.882Z,100.00
2023-02-16T09:46:41.880Z,100.00
2023-02-16T09:49:36.226Z,100.00
2023-02-16T09:52:16.755Z,100.00
2023-02-16T09:54:52.186Z,100.00
2023-02-16T09:57:53.919Z,100.00
2023-02-16T10:00:32.348Z,100.00
2023-02-16T10:03:17.544Z,100.00
2023-02-16T10:06:05.675Z,100.00
2023-02-16T10:08:41.284Z,100.00
2023-02-16T10:11:30.190Z,100.00
2023-02-16T10:14:04.210Z,100.00
2023-02-16T10:16:39.068Z,100.00
2023-02-16T10:19:18.617Z,100.00
2023-02-16T10:21:50.075Z,100.00
2023-02-16T10:24:17.123Z,100.00
2023-02-16T10:26:51.996Z,100.00
2023-02-16T10:29:20.683Z,100.00
2023-02-16T10:31:59.846Z,100.00
2023-02-16T10:34:43.309Z,100.00
2023-02-16T10:37:40.778Z,100.00
2023-02-16T10:40:55.042Z,100.00
2023-02-16T10:43:34.108Z,100.00
2023-02-16T10:46:01.635Z,100.00
2023-02-16T10:48:28.819Z,100.00
2023-02-16T10:51:03.913Z,100.00
2023-02-16T10:53:41.736Z,100.00
2023-02-16T10:56:32.385Z,100.00
2023-02-16T10:59:00.653Z,100.00
2023-02-16T11:01:38.039Z,100.00
2023-02-16T11:04:05.433Z,100.00
2023-02-16T11:06:32.019Z,100.00
2023-02-16T11:09:01.383Z,100.00
2023-02-16T11:11:30.669Z,75.75
2023-02-16T11:14:03.591Z,68.29
2023-02-16T11:16:31.421Z,68.89
2023-02-16T11:19:09.220Z,69.06
2023-02-16T11:21:54.232Z,68.91
2023-02-16T11:24:30.091Z,68.39
2023-02-16T11:27:06.319Z,67.23
2023-02-16T11:29:33.844Z,67.48
2023-02-16T11:32:06.748Z,65.95
2023-02-16T11:34:36.983Z,65.07
2023-02-16T11:37:14.016Z,65.06
2023-02-16T11:39:52.366Z,65.18
2023-02-16T11:42:24.808Z,66.08
2023-02-16T11:44:54.711Z,64.92
2023-02-16T11:47:34.937Z,65.49
2023-02-16T11:50:21.375Z,62.96
2023-02-16T11:52:49.820Z,62.32
2023-02-16T11:55:34.485Z,63.38
2023-02-16T11:58:33.539Z,63.45
2023-02-16T12:01:08.885Z,63.85
2023-02-16T12:04:17.003Z,62.58
2023-02-16T12:07:13.137Z,61.72
2023-02-16T12:10:00.854Z,62.84
2023-02-16T12:12:40.304Z,63.83
2023-02-16T12:15:15.649Z,64.13
2023-02-16T12:18:00.773Z,63.16
2023-02-16T12:20:55.520Z,63.64
2023-02-16T12:23:24.895Z,61.51
2023-02-16T12:26:36.845Z,61.39
2023-02-16T12:29:14.451Z,62.06
2023-02-16T12:32:15.180Z,60.82
2023-02-16T12:35:26.162Z,61.93
2023-02-16T12:38:17.546Z,62.42
2023-02-16T12:40:56.987Z,61.75
2023-02-16T12:43:47.358Z,60.89
2023-02-16T12:46:27.427Z,61.92
2023-02-16T12:49:00.109Z,60.65
2023-02-16T12:51:48.003Z,62.02
2023-02-16T12:54:21.090Z,61.44
2023-02-16T12:56:59.414Z,59.29
2023-02-16T12:59:47.511Z,59.16
2023-02-16T13:02:37.253Z,59.29
2023-02-16T13:05:31.642Z,58.03
2023-02-16T13:08:06.674Z,58.66
2023-02-16T13:10:57.705Z,57.69
2023-02-16T13:13:27.723Z,57.84
2023-02-16T13:16:20.435Z,57.55
2023-02-16T13:18:55.959Z,57.11
2023-02-16T13:21:50.528Z,55.87
2023-02-16T13:24:31.935Z,57.39
2023-02-16T13:27:18.080Z,57.74
2023-02-16T13:29:53.745Z,56.33
2023-02-16T13:32:37.315Z,56.40
2023-02-16T13:35:41.850Z,55.72
2023-02-16T13:38:46.208Z,55.66
2023-02-16T13:41:27.843Z,54.55
2023-02-16T13:43:58.298Z,55.49
2023-02-16T13:46:24.775Z,54.73
2023-02-16T13:48:52.232Z,54.75
2023-02-16T13:51:22.197Z,55.40
2023-02-16T13:53:51.725Z,55.06
2023-02-16T13:56:37.432Z,54.49
2023-02-16T13:59:19.210Z,54.37
2023-02-16T14:01:48.150Z,54.00
2023-02-16T14:04:23.831Z,53.91
2023-02-16T14:06:51.325Z,54.02
2023-02-16T14:09:17.774Z,54.93
2023-02-16T14:12:09.234Z,55.59
2023-02-16T14:14:44.030Z,54.02
2023-02-16T14:17:19.337Z,54.55
2023-02-16T14:20:00.666Z,54.64
2023-02-16T14:22:45.531Z,54.83
2023-02-16T14:25:37.153Z,55.29
2023-02-16T14:28:22.087Z,54.70
2023-02-16T14:30:53.283Z,54.97
2023-02-16T14:33:22.688Z,55.70
2023-02-16T14:35:58.443Z,55.41
2023-02-16T14:38:34.550Z,55.14
2023-02-16T14:41:04.327Z,55.65
2023-02-16T14:43:33.247Z,55.04
2023-02-16T14:46:18.731Z,55.06
2023-02-16T14:49:07.349Z,55.45
2023-02-16T14:51:36.532Z,55.02
2023-02-16T14:54:21.364Z,55.25
2023-02-16T14:56:54.778Z,55.58
2023-02-16T14:59:33.967Z,55.78
2023-02-16T15:02:00.929Z,56.14
2023-02-16T15:04:32.771Z,55.87
2023-02-16T15:07:03.854Z,55.68
2023-02-16T15:09:33.740Z,55.71
2023-02-16T15:12:05.653Z,56.20
2023-02-16T15:14:37.639Z,56.30
2023-02-16T15:17:07.571Z,56.39
2023-02-16T15:19:35.150Z,56.93
2023-02-16T15:22:19.416Z,57.26
2023-02-16T15:24:55.784Z,57.51
2023-02-16T15:27:24.185Z,57.75
2023-02-16T15:30:20.683Z,57.80
2023-02-16T15:32:57.208Z,58.09
2023-02-16T15:35:37.658Z,58.15
2023-02-16T15:38:13.606Z,58.48
2023-02-16T15:40:40.376Z,58.71
2023-02-16T15:43:17.436Z,58.93
2023-02-16T15:45:49.395Z,59.28
2023-02-16T15:48:37.102Z,59.76
2023-02-16T15:51:25.039Z,59.90
2023-02-16T15:54:03.927Z,60.11
2023-02-16T15:56:48.485Z,60.64
2023-02-16T15:59:43.483Z,60.86
2023-02-16T16:02:17.943Z,61.17
2023-02-16T16:04:57.769Z,61.27
2023-02-16T16:07:37.733Z,61.20
2023-02-16T16:10:16.936Z,61.34
2023-02-16T16:12:44.831Z,61.67
2023-02-16T16:15:19.629Z,61.62
2023-02-16T16:17:46.401Z,61.72
2023-02-16T16:20:27.945Z,62.20
2023-02-16T16:22:58.373Z,62.38
2023-02-16T16:25:34.308Z,62.61
2023-02-16T16:28:02.367Z,62.82
2023-02-16T16:30:32.985Z,62.78
2023-02-16T16:33:08.438Z,63.05
2023-02-16T16:35:49.759Z,63.09
2023-02-16T16:38:33.831Z,63.51
2023-02-16T16:41:03.673Z,63.10
2023-02-16T16:43:37.845Z,63.58
2023-02-16T16:46:20.528Z,64.25
2023-02-16T16:48:50.074Z,64.15
2023-02-16T16:51:18.541Z,64.37
2023-02-16T16:53:50.700Z,63.94
2023-02-16T16:56:17.652Z,64.23
2023-02-16T16:58:47.782Z,64.46
2023-02-16T17:01:14.529Z,65.36
2023-02-16T17:03:41.272Z,65.28
2023-02-16T17:06:07.721Z,65.15
2023-02-16T17:08:36.337Z,64.98
2023-02-16T17:11:04.529Z,65.15
2023-02-16T17:13:31.936Z,65.33
2023-02-16T17:16:07.455Z,65.76
2023-02-16T17:18:34.757Z,66.34
2023-02-16T17:21:01.270Z,66.45
2023-02-16T17:23:27.911Z,66.44
2023-02-16T17:25:54.374Z,66.41
2023-02-16T17:28:21.509Z,66.52
2023-02-16T17:30:48.089Z,66.50
2023-02-16T17:33:14.784Z,66.82
2023-02-16T17:35:43.474Z,66.89
2023-02-16T17:38:14.027Z,67.14
2023-02-16T17:40:40.727Z,67.46
2023-02-16T17:43:12.635Z,67.49
2023-02-16T17:45:39.701Z,67.62
2023-02-16T17:48:07.127Z,67.67
2023-02-16T17:50:33.964Z,67.78
2023-02-16T17:53:00.435Z,68.16
2023-02-16T17:55:27.367Z,68.27
2023-02-16T17:57:53.865Z,68.79
2023-02-16T18:00:21.648Z,68.72
2023-02-16T18:02:48.205Z,68.81
2023-02-16T18:05:15.356Z,69.11
2023-02-16T18:07:42.309Z,69.44
2023-02-16T18:10:16.267Z,69.68
2023-02-16T18:12:43.164Z,69.65
2023-02-16T18:15:10.317Z,69.38
2023-02-16T18:17:37.059Z,69.92
2023-02-16T18:20:04.568Z,70.24
2023-02-16T18:22:31.072Z,70.05
2023-02-16T18:24:57.597Z,70.77
2023-02-16T18:27:24.045Z,70.50
2023-02-16T18:29:51.409Z,71.81
2023-02-16T18:32:17.959Z,71.65
2023-02-16T18:34:45.225Z,71.61
2023-02-16T18:37:11.936Z,73.61
2023-02-16T18:39:38.679Z,72.09
2023-02-16T18:42:05.222Z,71.91
2023-02-16T18:44:34.464Z,72.35
2023-02-16T18:47:01.483Z,72.53
2023-02-16T18:49:28.637Z,72.21
2023-02-16T18:51:55.234Z,74.55
2023-02-16T18:54:21.767Z,73.19
2023-02-16T18:56:49.887Z,72.81
2023-02-16T18:59:16.362Z,73.39
2023-02-16T19:01:43.210Z,73.58
2023-02-16T19:04:10.244Z,73.13
2023-02-16T19:06:37.275Z,72.93
2023-02-16T19:09:04.750Z,72.87
2023-02-16T19:11:31.789Z,73.98
2023-02-16T19:13:58.246Z,74.51
2023-02-16T19:16:24.917Z,74.51
2023-02-16T19:18:52.014Z,74.46
2023-02-16T19:21:18.863Z,74.50
2023-02-16T19:23:45.636Z,75.42
2023-02-16T19:26:16.620Z,76.43
2023-02-16T19:28:43.703Z,75.67
2023-02-16T19:31:21.171Z,75.78
2023-02-16T19:33:48.309Z,75.92
2023-02-16T19:36:15.909Z,75.51
2023-02-16T19:38:43.687Z,75.86
2023-02-16T19:41:12.105Z,77.23
2023-02-16T19:43:38.723Z,76.47
2023-02-16T19:46:06.308Z,75.98
2023-02-16T19:48:33.648Z,76.12
2023-02-16T19:51:01.737Z,78.88
2023-02-16T19:53:30.189Z,81.55
2023-02-16T19:55:56.908Z,79.26
2023-02-16T19:58:24.899Z,80.08
2023-02-16T20:00:52.464Z,82.37
2023-02-16T20:03:19.189Z,90.81
2023-02-16T20:05:45.751Z,88.71
2023-02-16T20:08:12.360Z,82.16
2023-02-16T20:10:44.984Z,81.08
2023-02-16T20:13:15.394Z,80.76
2023-02-16T20:15:42.311Z,80.63
2023-02-16T20:18:08.796Z,80.50
2023-02-16T20:20:36.037Z,80.91
2023-02-16T20:23:02.988Z,80.32
2023-02-16T20:25:29.831Z,79.52
2023-02-16T20:27:57.214Z,80.00
2023-02-16T20:30:24.057Z,81.88
2023-02-16T20:32:50.762Z,84.31
2023-02-16T20:35:17.553Z,84.21
2023-02-16T20:37:44.068Z,83.31
2023-02-16T20:40:11.324Z,82.80
2023-02-16T20:42:37.987Z,82.72
2023-02-16T20:45:05.000Z,83.56
2023-02-16T20:47:32.983Z,82.87
2023-02-16T20:49:59.836Z,84.20
2023-02-16T20:52:26.577Z,84.56
2023-02-16T20:54:53.030Z,84.29
2023-02-16T20:57:26.861Z,87.68
2023-02-16T20:59:55.104Z,86.08
2023-02-16T21:02:21.707Z,85.10
2023-02-16T21:04:48.194Z,85.85
2023-02-16T21:07:14.597Z,84.80
2023-02-16T21:09:41.081Z,85.15
2023-02-16T21:12:07.582Z,97.40
2023-02-16T21:14:34.517Z,88.42
2023-02-16T21:17:01.178Z,86.10
2023-02-16T21:19:27.821Z,89.33
2023-02-16T21:21:54.564Z,91.13
2023-02-16T21:24:21.188Z,88.86
2023-02-16T21:26:47.801Z,95.11
2023-02-16T21:29:14.574Z,95.21
2023-02-16T21:31:41.188Z,89.59
2023-02-16T21:34:07.777Z,88.43
2023-02-16T21:36:34.316Z,87.80
2023-02-16T21:39:02.889Z,87.58
2023-02-16T21:41:30.169Z,88.03
2023-02-16T21:44:10.541Z,87.85
2023-02-16T21:46:42.320Z,87.32
2023-02-16T21:49:14.469Z,87.26
2023-02-16T21:51:42.631Z,87.87
2023-02-16T21:54:13.819Z,87.81
2023-02-16T21:56:42.489Z,91.06
2023-02-16T21:59:12.922Z,91.59
2023-02-16T22:01:44.853Z,90.90
2023-02-16T22:04:13.216Z,91.07
2023-02-16T22:06:42.681Z,90.42
2023-02-16T22:09:12.966Z,89.78
2023-02-16T22:11:39.967Z,89.90
2023-02-16T22:14:06.939Z,89.61
2023-02-16T22:16:35.669Z,89.82
2023-02-16T22:19:07.292Z,90.06
2023-02-16T22:21:39.378Z,90.09
2023-02-16T22:24:07.717Z,90.37
2023-02-16T22:26:35.699Z,90.03
2023-02-16T22:29:06.990Z,89.55
2023-02-16T22:31:35.275Z,90.27
2023-02-16T22:34:07.536Z,95.01
2023-02-16T22:36:36.051Z,92.53
2023-02-16T22:39:02.611Z,91.94
2023-02-16T22:41:29.107Z,92.60
2023-02-16T22:43:56.629Z,94.50
2023-02-16T22:46:24.220Z,92.74
2023-02-16T22:48:51.742Z,92.64
2023-02-16T22:51:20.124Z,93.86
2023-02-16T22:53:46.969Z,93.45
2023-02-16T22:56:16.269Z,93.22
2023-02-16T22:58:43.290Z,92.63
2023-02-16T23:01:15.663Z,92.27
2023-02-16T23:03:43.206Z,92.52
2023-02-16T23:06:17.278Z,92.30
2023-02-16T23:08:45.468Z,92.84
2023-02-16T23:11:12.622Z,92.92
2023-02-16T23:13:39.154Z,93.10
2023-02-16T23:16:08.819Z,93.03
2023-02-16T23:18:35.760Z,96.73
2023-02-16T23:21:20.675Z,99.23
2023-02-16T23:23:48.896Z,99.74
2023-02-16T23:26:16.432Z,97.84
2023-02-16T23:28:44.314Z,96.77
2023-02-16T23:31:12.099Z,95.41
2023-02-16T23:33:39.416Z,94.86
2023-02-16T23:36:06.593Z,94.73
2023-02-16T23:38:33.845Z,95.34
2023-02-16T23:41:03.873Z,96.56
2023-02-16T23:43:31.319Z,97.41
2023-02-16T23:45:58.914Z,97.58
2023-02-16T23:48:26.448Z,96.51
2023-02-16T23:50:55.540Z,95.53
2023-02-16T23:53:24.263Z,97.29
2023-02-16T23:56:14.435Z,96.92
2023-02-16T23:58:42.788Z,99.50
